sensor_id;sensor_type;location;lat;lon;timestamp;temperature;humidity
75685;HTU21D;64298;46.050;38.164;2024-03-08T00:00:05;-0.19;71.12
75685;HTU21D;64298;46.050;38.164;2024-03-08T00:02:38;-0.20;71.32
75685;HTU21D;64298;46.050;38.164;2024-03-08T00:05:06;-0.21;71.16
75685;HTU21D;64298;46.050;38.164;2024-03-08T00:07:37;-0.26;71.28
75685;HTU21D;64298;46.050;38.164;2024-03-08T00:10:05;-0.30;71.42
75685;HTU21D;64298;46.050;38.164;2024-03-08T00:12:31;-0.34;71.43
75685;HTU21D;64298;46.050;38.164;2024-03-08T00:14:57;-0.34;71.48
75685;HTU21D;64298;46.050;38.164;2024-03-08T00:17:30;-0.38;71.51
75685;HTU21D;64298;46.050;38.164;2024-03-08T00:19:56;-0.38;71.52
75685;HTU21D;64298;46.050;38.164;2024-03-08T00:22:23;-0.40;71.64
75685;HTU21D;64298;46.050;38.164;2024-03-08T00:24:49;-0.43;71.64
75685;HTU21D;64298;46.050;38.164;2024-03-08T00:27:17;-0.45;71.72
75685;HTU21D;64298;46.050;38.164;2024-03-08T00:29:46;-0.51;71.84
75685;HTU21D;64298;46.050;38.164;2024-03-08T00:32:12;-0.52;71.75
75685;HTU21D;64298;46.050;38.164;2024-03-08T00:34:38;-0.54;71.77
75685;HTU21D;64298;46.050;38.164;2024-03-08T00:37:05;-0.58;71.93
75685;HTU21D;64298;46.050;38.164;2024-03-08T00:39:31;-0.65;72.03
75685;HTU21D;64298;46.050;38.164;2024-03-08T00:41:57;-0.66;72.06
75685;HTU21D;64298;46.050;38.164;2024-03-08T00:44:23;-0.69;72.13
75685;HTU21D;64298;46.050;38.164;2024-03-08T00:46:50;-0.73;72.13
75685;HTU21D;64298;46.050;38.164;2024-03-08T00:49:16;-0.75;72.18
75685;HTU21D;64298;46.050;38.164;2024-03-08T00:51:42;-0.79;72.35
75685;HTU21D;64298;46.050;38.164;2024-03-08T00:54:09;-0.84;72.45
75685;HTU21D;64298;46.050;38.164;2024-03-08T00:56:35;-0.83;72.26
75685;HTU21D;64298;46.050;38.164;2024-03-08T00:59:01;-0.85;72.47
75685;HTU21D;64298;46.050;38.164;2024-03-08T01:01:28;-0.89;72.70
75685;HTU21D;64298;46.050;38.164;2024-03-08T01:03:55;-0.95;72.64
75685;HTU21D;64298;46.050;38.164;2024-03-08T01:06:22;-0.98;72.90
75685;HTU21D;64298;46.050;38.164;2024-03-08T01:08:48;-1.01;72.90
75685;HTU21D;64298;46.050;38.164;2024-03-08T01:11:17;-1.00;72.83
75685;HTU21D;64298;46.050;38.164;2024-03-08T01:13:43;-1.02;72.93
75685;HTU21D;64298;46.050;38.164;2024-03-08T01:16:09;-1.05;72.98
75685;HTU21D;64298;46.050;38.164;2024-03-08T01:18:35;-1.08;73.03
75685;HTU21D;64298;46.050;38.164;2024-03-08T01:21:02;-1.08;73.15
75685;HTU21D;64298;46.050;38.164;2024-03-08T01:23:28;-1.10;73.22
75685;HTU21D;64298;46.050;38.164;2024-03-08T01:25:55;-1.11;73.20
75685;HTU21D;64298;46.050;38.164;2024-03-08T01:28:26;-1.12;73.24
75685;HTU21D;64298;46.050;38.164;2024-03-08T01:30:52;-1.06;73.14
75685;HTU21D;64298;46.050;38.164;2024-03-08T01:33:24;-1.06;73.02
75685;HTU21D;64298;46.050;38.164;2024-03-08T01:35:54;-1.05;73.15
75685;HTU21D;64298;46.050;38.164;2024-03-08T01:38:20;-1.06;73.25
75685;HTU21D;64298;46.050;38.164;2024-03-08T01:40:50;-1.10;73.32
75685;HTU21D;64298;46.050;38.164;2024-03-08T01:43:21;-1.10;73.39
75685;HTU21D;64298;46.050;38.164;2024-03-08T01:45:48;-1.13;73.39
75685;HTU21D;64298;46.050;38.164;2024-03-08T01:48:15;-1.11;73.25
75685;HTU21D;64298;46.050;38.164;2024-03-08T01:50:43;-1.09;73.15
75685;HTU21D;64298;46.050;38.164;2024-03-08T01:53:10;-1.02;73.07
75685;HTU21D;64298;46.050;38.164;2024-03-08T01:55:38;-0.99;72.99
75685;HTU21D;64298;46.050;38.164;2024-03-08T01:58:05;-0.99;73.15
75685;HTU21D;64298;46.050;38.164;2024-03-08T02:00:35;-0.96;73.10
75685;HTU21D;64298;46.050;38.164;2024-03-08T02:03:02;-0.93;72.93
75685;HTU21D;64298;46.050;38.164;2024-03-08T02:05:28;-0.89;72.96
75685;HTU21D;64298;46.050;38.164;2024-03-08T02:07:54;-0.88;72.99
75685;HTU21D;64298;46.050;38.164;2024-03-08T02:10:21;-0.90;73.08
75685;HTU21D;64298;46.050;38.164;2024-03-08T02:12:48;-0.89;73.03
75685;HTU21D;64298;46.050;38.164;2024-03-08T02:15:14;-0.88;73.08
75685;HTU21D;64298;46.050;38.164;2024-03-08T02:17:40;-0.95;73.36
75685;HTU21D;64298;46.050;38.164;2024-03-08T02:20:07;-0.98;73.30
75685;HTU21D;64298;46.050;38.164;2024-03-08T02:22:35;-0.97;73.19
75685;HTU21D;64298;46.050;38.164;2024-03-08T02:25:02;-0.97;73.09
75685;HTU21D;64298;46.050;38.164;2024-03-08T02:27:29;-1.01;73.26
75685;HTU21D;64298;46.050;38.164;2024-03-08T02:29:56;-1.00;73.15
75685;HTU21D;64298;46.050;38.164;2024-03-08T02:32:23;-0.98;73.15
75685;HTU21D;64298;46.050;38.164;2024-03-08T02:34:50;-0.97;73.09
75685;HTU21D;64298;46.050;38.164;2024-03-08T02:37:16;-0.95;73.03
75685;HTU21D;64298;46.050;38.164;2024-03-08T02:39:43;-0.94;72.91
75685;HTU21D;64298;46.050;38.164;2024-03-08T02:42:09;-0.91;72.84
75685;HTU21D;64298;46.050;38.164;2024-03-08T02:44:35;-0.90;72.83
75685;HTU21D;64298;46.050;38.164;2024-03-08T02:47:01;-0.91;72.78
75685;HTU21D;64298;46.050;38.164;2024-03-08T02:49:27;-0.91;72.90
75685;HTU21D;64298;46.050;38.164;2024-03-08T02:51:53;-0.91;72.90
75685;HTU21D;64298;46.050;38.164;2024-03-08T02:54:19;-0.98;73.08
75685;HTU21D;64298;46.050;38.164;2024-03-08T02:56:46;-0.98;73.00
75685;HTU21D;64298;46.050;38.164;2024-03-08T02:59:14;-0.97;73.07
75685;HTU21D;64298;46.050;38.164;2024-03-08T03:01:43;-0.99;73.19
75685;HTU21D;64298;46.050;38.164;2024-03-08T03:04:09;-1.01;73.39
75685;HTU21D;64298;46.050;38.164;2024-03-08T03:06:35;-1.05;73.46
75685;HTU21D;64298;46.050;38.164;2024-03-08T03:09:01;-1.06;73.54
75685;HTU21D;64298;46.050;38.164;2024-03-08T03:11:27;-1.06;73.57
75685;HTU21D;64298;46.050;38.164;2024-03-08T03:13:53;-1.06;73.66
75685;HTU21D;64298;46.050;38.164;2024-03-08T03:16:19;-1.09;73.71
75685;HTU21D;64298;46.050;38.164;2024-03-08T03:18:46;-1.11;73.96
75685;HTU21D;64298;46.050;38.164;2024-03-08T03:21:15;-1.12;73.96
75685;HTU21D;64298;46.050;38.164;2024-03-08T03:23:41;-1.14;73.99
75685;HTU21D;64298;46.050;38.164;2024-03-08T03:26:10;-1.11;73.93
75685;HTU21D;64298;46.050;38.164;2024-03-08T03:28:39;-1.10;73.81
75685;HTU21D;64298;46.050;38.164;2024-03-08T03:31:08;-1.09;73.90
75685;HTU21D;64298;46.050;38.164;2024-03-08T03:33:35;-1.13;73.93
75685;HTU21D;64298;46.050;38.164;2024-03-08T03:36:03;-1.10;73.75
75685;HTU21D;64298;46.050;38.164;2024-03-08T03:38:30;-1.10;73.72
75685;HTU21D;64298;46.050;38.164;2024-03-08T03:40:57;-1.14;74.13
75685;HTU21D;64298;46.050;38.164;2024-03-08T03:43:30;-1.17;74.14
75685;HTU21D;64298;46.050;38.164;2024-03-08T03:45:55;-1.20;74.15
75685;HTU21D;64298;46.050;38.164;2024-03-08T03:48:21;-1.19;74.15
75685;HTU21D;64298;46.050;38.164;2024-03-08T03:50:47;-1.15;73.97
75685;HTU21D;64298;46.050;38.164;2024-03-08T03:53:13;-1.14;73.90
75685;HTU21D;64298;46.050;38.164;2024-03-08T03:55:39;-1.12;73.92
75685;HTU21D;64298;46.050;38.164;2024-03-08T03:58:05;-1.13;73.93
75685;HTU21D;64298;46.050;38.164;2024-03-08T04:00:31;-1.16;74.12
75685;HTU21D;64298;46.050;38.164;2024-03-08T04:02:57;-1.17;73.95
75685;HTU21D;64298;46.050;38.164;2024-03-08T04:05:26;-1.14;73.93
75685;HTU21D;64298;46.050;38.164;2024-03-08T04:07:52;-1.13;74.05
75685;HTU21D;64298;46.050;38.164;2024-03-08T04:10:18;-1.12;74.02
75685;HTU21D;64298;46.050;38.164;2024-03-08T04:12:45;-1.11;73.80
75685;HTU21D;64298;46.050;38.164;2024-03-08T04:15:10;-1.09;73.84
75685;HTU21D;64298;46.050;38.164;2024-03-08T04:17:36;-1.08;73.81
75685;HTU21D;64298;46.050;38.164;2024-03-08T04:20:05;-1.05;73.92
75685;HTU21D;64298;46.050;38.164;2024-03-08T04:22:40;-1.03;73.83
75685;HTU21D;64298;46.050;38.164;2024-03-08T04:25:07;-1.04;74.08
75685;HTU21D;64298;46.050;38.164;2024-03-08T04:27:33;-1.04;74.02
75685;HTU21D;64298;46.050;38.164;2024-03-08T04:30:00;-1.05;74.36
75685;HTU21D;64298;46.050;38.164;2024-03-08T04:32:26;-1.11;74.88
75685;HTU21D;64298;46.050;38.164;2024-03-08T04:34:55;-1.16;75.13
75685;HTU21D;64298;46.050;38.164;2024-03-08T04:37:21;-1.19;75.35
75685;HTU21D;64298;46.050;38.164;2024-03-08T04:39:48;-1.23;75.70
75685;HTU21D;64298;46.050;38.164;2024-03-08T04:42:14;-1.23;75.67
75685;HTU21D;64298;46.050;38.164;2024-03-08T04:44:41;-1.19;75.56
75685;HTU21D;64298;46.050;38.164;2024-03-08T04:47:07;-1.17;75.41
75685;HTU21D;64298;46.050;38.164;2024-03-08T04:49:33;-1.15;75.67
75685;HTU21D;64298;46.050;38.164;2024-03-08T04:52:02;-1.10;75.60
75685;HTU21D;64298;46.050;38.164;2024-03-08T04:54:29;-1.08;75.73
75685;HTU21D;64298;46.050;38.164;2024-03-08T04:56:55;-1.08;75.76
75685;HTU21D;64298;46.050;38.164;2024-03-08T04:59:21;-1.06;75.99
75685;HTU21D;64298;46.050;38.164;2024-03-08T05:01:47;-1.05;75.89
75685;HTU21D;64298;46.050;38.164;2024-03-08T05:04:13;-0.98;75.61
75685;HTU21D;64298;46.050;38.164;2024-03-08T05:06:41;-0.94;75.71
75685;HTU21D;64298;46.050;38.164;2024-03-08T05:09:06;-0.96;75.79
75685;HTU21D;64298;46.050;38.164;2024-03-08T05:11:43;-0.97;76.06
75685;HTU21D;64298;46.050;38.164;2024-03-08T05:14:13;-1.01;76.35
75685;HTU21D;64298;46.050;38.164;2024-03-08T05:16:45;-1.06;76.70
75685;HTU21D;64298;46.050;38.164;2024-03-08T05:19:18;-1.06;76.57
75685;HTU21D;64298;46.050;38.164;2024-03-08T05:21:48;-1.12;76.98
75685;HTU21D;64298;46.050;38.164;2024-03-08T05:24:15;-1.17;77.36
75685;HTU21D;64298;46.050;38.164;2024-03-08T05:26:42;-1.16;77.43
75685;HTU21D;64298;46.050;38.164;2024-03-08T05:29:08;-1.18;77.62
75685;HTU21D;64298;46.050;38.164;2024-03-08T05:31:48;-1.16;77.52
75685;HTU21D;64298;46.050;38.164;2024-03-08T05:34:15;-1.16;77.56
75685;HTU21D;64298;46.050;38.164;2024-03-08T05:36:41;-1.19;77.75
75685;HTU21D;64298;46.050;38.164;2024-03-08T05:39:11;-1.17;77.70
75685;HTU21D;64298;46.050;38.164;2024-03-08T05:41:38;-1.16;77.89
75685;HTU21D;64298;46.050;38.164;2024-03-08T05:44:05;-1.18;78.12
75685;HTU21D;64298;46.050;38.164;2024-03-08T05:46:31;-1.19;77.98
75685;HTU21D;64298;46.050;38.164;2024-03-08T05:48:57;-1.16;78.27
75685;HTU21D;64298;46.050;38.164;2024-03-08T05:51:27;-1.16;78.37
75685;HTU21D;64298;46.050;38.164;2024-03-08T05:53:54;-1.11;78.26
75685;HTU21D;64298;46.050;38.164;2024-03-08T05:56:21;-1.08;78.36
75685;HTU21D;64298;46.050;38.164;2024-03-08T05:58:48;-1.03;78.30
75685;HTU21D;64298;46.050;38.164;2024-03-08T06:01:16;-1.04;78.34
75685;HTU21D;64298;46.050;38.164;2024-03-08T06:03:42;-1.03;78.50
75685;HTU21D;64298;46.050;38.164;2024-03-08T06:06:14;-1.03;78.59
75685;HTU21D;64298;46.050;38.164;2024-03-08T06:08:41;-0.99;78.42
75685;HTU21D;64298;46.050;38.164;2024-03-08T06:11:09;-0.94;78.33
75685;HTU21D;64298;46.050;38.164;2024-03-08T06:13:35;-0.93;78.43
75685;HTU21D;64298;46.050;38.164;2024-03-08T06:16:02;-0.91;78.57
75685;HTU21D;64298;46.050;38.164;2024-03-08T06:18:34;-0.90;78.66
75685;HTU21D;64298;46.050;38.164;2024-03-08T06:21:05;-0.91;78.80
75685;HTU21D;64298;46.050;38.164;2024-03-08T06:23:50;-0.90;78.66
75685;HTU21D;64298;46.050;38.164;2024-03-08T06:26:15;-0.94;78.82
75685;HTU21D;64298;46.050;38.164;2024-03-08T06:28:42;-0.94;78.82
75685;HTU21D;64298;46.050;38.164;2024-03-08T06:31:08;-0.89;78.72
75685;HTU21D;64298;46.050;38.164;2024-03-08T06:33:36;-0.82;78.55
75685;HTU21D;64298;46.050;38.164;2024-03-08T06:36:02;-0.77;78.40
75685;HTU21D;64298;46.050;38.164;2024-03-08T06:38:28;-0.73;78.28
75685;HTU21D;64298;46.050;38.164;2024-03-08T06:40:54;-0.70;78.16
75685;HTU21D;64298;46.050;38.164;2024-03-08T06:43:20;-0.68;78.24
75685;HTU21D;64298;46.050;38.164;2024-03-08T06:45:46;-0.65;78.27
75685;HTU21D;64298;46.050;38.164;2024-03-08T06:48:16;-0.59;78.16
75685;HTU21D;64298;46.050;38.164;2024-03-08T06:50:46;-0.51;78.04
75685;HTU21D;64298;46.050;38.164;2024-03-08T06:53:13;-0.49;77.91
75685;HTU21D;64298;46.050;38.164;2024-03-08T06:55:39;-0.52;78.02
75685;HTU21D;64298;46.050;38.164;2024-03-08T06:58:06;-0.52;78.08
75685;HTU21D;64298;46.050;38.164;2024-03-08T07:00:37;-0.47;78.12
75685;HTU21D;64298;46.050;38.164;2024-03-08T07:03:03;-0.42;78.01
75685;HTU21D;64298;46.050;38.164;2024-03-08T07:05:29;-0.37;77.89
75685;HTU21D;64298;46.050;38.164;2024-03-08T07:07:56;-0.34;77.73
75685;HTU21D;64298;46.050;38.164;2024-03-08T07:10:22;-0.35;77.83
75685;HTU21D;64298;46.050;38.164;2024-03-08T07:12:51;-0.37;77.90
75685;HTU21D;64298;46.050;38.164;2024-03-08T07:15:17;-0.35;77.98
75685;HTU21D;64298;46.050;38.164;2024-03-08T07:17:48;-0.28;77.85
75685;HTU21D;64298;46.050;38.164;2024-03-08T07:20:14;-0.20;77.63
75685;HTU21D;64298;46.050;38.164;2024-03-08T07:22:45;-0.16;77.41
75685;HTU21D;64298;46.050;38.164;2024-03-08T07:25:14;-0.16;77.44
75685;HTU21D;64298;46.050;38.164;2024-03-08T07:27:53;-0.14;77.41
75685;HTU21D;64298;46.050;38.164;2024-03-08T07:30:20;-0.11;77.37
75685;HTU21D;64298;46.050;38.164;2024-03-08T07:33:23;-0.08;77.37
75685;HTU21D;64298;46.050;38.164;2024-03-08T07:35:49;-0.06;77.46
75685;HTU21D;64298;46.050;38.164;2024-03-08T07:38:16;0.08;77.34
75685;HTU21D;64298;46.050;38.164;2024-03-08T07:40:42;0.24;76.97
75685;HTU21D;64298;46.050;38.164;2024-03-08T07:43:12;0.31;76.63
75685;HTU21D;64298;46.050;38.164;2024-03-08T07:45:38;0.33;76.50
75685;HTU21D;64298;46.050;38.164;2024-03-08T07:48:05;0.31;76.43
75685;HTU21D;64298;46.050;38.164;2024-03-08T07:50:39;0.32;76.53
75685;HTU21D;64298;46.050;38.164;2024-03-08T07:53:06;0.40;76.45
75685;HTU21D;64298;46.050;38.164;2024-03-08T07:55:33;0.51;76.24
75685;HTU21D;64298;46.050;38.164;2024-03-08T07:58:01;0.60;75.97
75685;HTU21D;64298;46.050;38.164;2024-03-08T08:00:27;0.66;75.83
75685;HTU21D;64298;46.050;38.164;2024-03-08T08:02:53;0.71;75.70
75685;HTU21D;64298;46.050;38.164;2024-03-08T08:05:19;0.72;75.54
75685;HTU21D;64298;46.050;38.164;2024-03-08T08:07:46;0.79;75.54
75685;HTU21D;64298;46.050;38.164;2024-03-08T08:10:12;0.92;75.31
75685;HTU21D;64298;46.050;38.164;2024-03-08T08:13:06;1.05;74.70
75685;HTU21D;64298;46.050;38.164;2024-03-08T08:15:32;1.07;74.80
75685;HTU21D;64298;46.050;38.164;2024-03-08T08:18:00;1.18;74.52
75685;HTU21D;64298;46.050;38.164;2024-03-08T08:20:26;1.36;74.28
75685;HTU21D;64298;46.050;38.164;2024-03-08T08:22:54;1.47;73.63
75685;HTU21D;64298;46.050;38.164;2024-03-08T08:25:21;1.46;73.50
75685;HTU21D;64298;46.050;38.164;2024-03-08T08:27:50;1.45;73.60
75685;HTU21D;64298;46.050;38.164;2024-03-08T08:30:16;1.56;73.22
75685;HTU21D;64298;46.050;38.164;2024-03-08T08:32:42;1.58;72.96
75685;HTU21D;64298;46.050;38.164;2024-03-08T08:35:08;1.51;72.87
75685;HTU21D;64298;46.050;38.164;2024-03-08T08:37:35;1.67;73.15
75685;HTU21D;64298;46.050;38.164;2024-03-08T08:40:21;2.22;72.03
75685;HTU21D;64298;46.050;38.164;2024-03-08T08:42:48;2.46;70.63
75685;HTU21D;64298;46.050;38.164;2024-03-08T08:45:14;2.54;70.75
75685;HTU21D;64298;46.050;38.164;2024-03-08T08:48:01;2.59;70.64
75685;HTU21D;64298;46.050;38.164;2024-03-08T08:50:27;2.51;70.55
75685;HTU21D;64298;46.050;38.164;2024-03-08T08:52:54;2.41;71.06
75685;HTU21D;64298;46.050;38.164;2024-03-08T08:55:21;2.60;70.58
75685;HTU21D;64298;46.050;38.164;2024-03-08T08:57:51;2.56;70.35
75685;HTU21D;64298;46.050;38.164;2024-03-08T09:00:20;2.65;70.32
75685;HTU21D;64298;46.050;38.164;2024-03-08T09:02:47;2.95;69.94
75685;HTU21D;64298;46.050;38.164;2024-03-08T09:05:16;3.16;69.17
75685;HTU21D;64298;46.050;38.164;2024-03-08T09:07:45;3.30;68.85
75685;HTU21D;64298;46.050;38.164;2024-03-08T09:10:11;3.30;68.39
75685;HTU21D;64298;46.050;38.164;2024-03-08T09:12:40;3.31;68.62
75685;HTU21D;64298;46.050;38.164;2024-03-08T09:15:07;3.20;68.64
75685;HTU21D;64298;46.050;38.164;2024-03-08T09:17:42;3.03;68.98
75685;HTU21D;64298;46.050;38.164;2024-03-08T09:20:10;2.95;69.39
75685;HTU21D;64298;46.050;38.164;2024-03-08T09:22:44;2.95;69.29
75685;HTU21D;64298;46.050;38.164;2024-03-08T09:25:10;2.90;69.22
75685;HTU21D;64298;46.050;38.164;2024-03-08T09:27:36;2.97;68.97
75685;HTU21D;64298;46.050;38.164;2024-03-08T09:30:02;3.17;68.97
75685;HTU21D;64298;46.050;38.164;2024-03-08T09:32:30;3.54;68.25
75685;HTU21D;64298;46.050;38.164;2024-03-08T09:34:57;3.73;67.72
75685;HTU21D;64298;46.050;38.164;2024-03-08T09:37:23;3.88;67.07
75685;HTU21D;64298;46.050;38.164;2024-03-08T09:39:49;3.77;66.94
75685;HTU21D;64298;46.050;38.164;2024-03-08T09:42:15;3.54;66.98
75685;HTU21D;64298;46.050;38.164;2024-03-08T09:44:48;3.43;67.85
75685;HTU21D;64298;46.050;38.164;2024-03-08T09:47:14;3.54;67.65
75685;HTU21D;64298;46.050;38.164;2024-03-08T09:49:41;3.71;66.68
75685;HTU21D;64298;46.050;38.164;2024-03-08T09:52:10;3.62;66.70
75685;HTU21D;64298;46.050;38.164;2024-03-08T09:54:38;3.58;66.88
75685;HTU21D;64298;46.050;38.164;2024-03-08T09:57:04;3.61;66.85
75685;HTU21D;64298;46.050;38.164;2024-03-08T09:59:33;3.70;66.87
75685;HTU21D;64298;46.050;38.164;2024-03-08T10:02:14;3.93;66.75
75685;HTU21D;64298;46.050;38.164;2024-03-08T10:04:40;4.10;65.95
75685;HTU21D;64298;46.050;38.164;2024-03-08T10:07:12;4.15;65.60
75685;HTU21D;64298;46.050;38.164;2024-03-08T10:09:38;4.13;65.86
75685;HTU21D;64298;46.050;38.164;2024-03-08T10:12:04;4.17;65.25
75685;HTU21D;64298;46.050;38.164;2024-03-08T10:14:30;4.16;65.32
75685;HTU21D;64298;46.050;38.164;2024-03-08T10:17:15;4.18;65.43
75685;HTU21D;64298;46.050;38.164;2024-03-08T10:19:49;4.23;65.34
75685;HTU21D;64298;46.050;38.164;2024-03-08T10:22:16;4.35;64.59
75685;HTU21D;64298;46.050;38.164;2024-03-08T10:24:45;4.35;64.66
75685;HTU21D;64298;46.050;38.164;2024-03-08T10:27:11;4.44;64.77
75685;HTU21D;64298;46.050;38.164;2024-03-08T10:29:37;4.49;64.56
75685;HTU21D;64298;46.050;38.164;2024-03-08T10:32:04;4.54;64.51
75685;HTU21D;64298;46.050;38.164;2024-03-08T10:34:32;4.60;64.12
75685;HTU21D;64298;46.050;38.164;2024-03-08T10:37:03;4.66;64.18
75685;HTU21D;64298;46.050;38.164;2024-03-08T10:39:36;4.72;63.95
75685;HTU21D;64298;46.050;38.164;2024-03-08T10:42:04;4.74;63.92
75685;HTU21D;64298;46.050;38.164;2024-03-08T10:47:01;4.81;63.86
75685;HTU21D;64298;46.050;38.164;2024-03-08T10:49:51;4.89;64.11
75685;HTU21D;64298;46.050;38.164;2024-03-08T10:52:20;5.01;63.63
75685;HTU21D;64298;46.050;38.164;2024-03-08T10:54:47;5.06;63.57
75685;HTU21D;64298;46.050;38.164;2024-03-08T10:57:14;5.21;63.14
75685;HTU21D;64298;46.050;38.164;2024-03-08T10:59:43;5.36;63.20
75685;HTU21D;64298;46.050;38.164;2024-03-08T11:02:12;5.50;62.86
75685;HTU21D;64298;46.050;38.164;2024-03-08T11:04:38;5.53;62.45
75685;HTU21D;64298;46.050;38.164;2024-03-08T11:07:05;5.49;62.41
75685;HTU21D;64298;46.050;38.164;2024-03-08T11:09:37;5.30;62.63
75685;HTU21D;64298;46.050;38.164;2024-03-08T11:12:29;5.26;63.02
75685;HTU21D;64298;46.050;38.164;2024-03-08T11:14:59;5.38;62.60
75685;HTU21D;64298;46.050;38.164;2024-03-08T11:20:00;5.19;62.78
75685;HTU21D;64298;46.050;38.164;2024-03-08T11:22:28;5.40;62.81
75685;HTU21D;64298;46.050;38.164;2024-03-08T11:25:08;5.61;62.15
75685;HTU21D;64298;46.050;38.164;2024-03-08T11:27:36;5.74;61.63
75685;HTU21D;64298;46.050;38.164;2024-03-08T11:30:06;5.77;61.60
75685;HTU21D;64298;46.050;38.164;2024-03-08T11:32:52;5.81;61.68
75685;HTU21D;64298;46.050;38.164;2024-03-08T11:35:23;5.98;61.45
75685;HTU21D;64298;46.050;38.164;2024-03-08T11:37:49;6.04;61.10
75685;HTU21D;64298;46.050;38.164;2024-03-08T11:40:15;5.92;61.18
75685;HTU21D;64298;46.050;38.164;2024-03-08T11:42:47;5.93;61.60
75685;HTU21D;64298;46.050;38.164;2024-03-08T11:45:14;5.92;61.34
75685;HTU21D;64298;46.050;38.164;2024-03-08T11:47:44;5.83;61.42
75685;HTU21D;64298;46.050;38.164;2024-03-08T11:50:13;5.69;61.75
75685;HTU21D;64298;46.050;38.164;2024-03-08T11:52:39;5.70;61.99
75685;HTU21D;64298;46.050;38.164;2024-03-08T11:55:06;5.76;61.82
75685;HTU21D;64298;46.050;38.164;2024-03-08T11:57:32;5.74;61.92
75685;HTU21D;64298;46.050;38.164;2024-03-08T11:59:59;5.82;61.87
75685;HTU21D;64298;46.050;38.164;2024-03-08T12:02:34;5.86;61.75
75685;HTU21D;64298;46.050;38.164;2024-03-08T12:05:04;5.84;61.71
75685;HTU21D;64298;46.050;38.164;2024-03-08T12:07:32;5.96;61.64
75685;HTU21D;64298;46.050;38.164;2024-03-08T12:10:20;6.06;61.27
75685;HTU21D;64298;46.050;38.164;2024-03-08T12:12:56;5.87;61.13
75685;HTU21D;64298;46.050;38.164;2024-03-08T12:15:25;5.85;61.62
75685;HTU21D;64298;46.050;38.164;2024-03-08T12:17:53;5.93;61.45
75685;HTU21D;64298;46.050;38.164;2024-03-08T12:20:39;6.08;61.40
75685;HTU21D;64298;46.050;38.164;2024-03-08T12:23:14;6.14;61.38
75685;HTU21D;64298;46.050;38.164;2024-03-08T12:26:15;6.13;61.22
75685;HTU21D;64298;46.050;38.164;2024-03-08T12:28:43;6.06;61.27
75685;HTU21D;64298;46.050;38.164;2024-03-08T12:31:18;6.02;61.30
75685;HTU21D;64298;46.050;38.164;2024-03-08T12:33:49;6.07;61.25
75685;HTU21D;64298;46.050;38.164;2024-03-08T12:36:22;6.08;60.86
75685;HTU21D;64298;46.050;38.164;2024-03-08T12:38:48;6.07;60.61
75685;HTU21D;64298;46.050;38.164;2024-03-08T12:41:19;5.96;60.55
75685;HTU21D;64298;46.050;38.164;2024-03-08T12:44:04;5.86;60.45
75685;HTU21D;64298;46.050;38.164;2024-03-08T12:46:33;5.87;60.39
75685;HTU21D;64298;46.050;38.164;2024-03-08T12:49:00;5.81;60.02
75685;HTU21D;64298;46.050;38.164;2024-03-08T12:51:26;5.80;59.93
75685;HTU21D;64298;46.050;38.164;2024-03-08T12:53:55;5.93;60.00
75685;HTU21D;64298;46.050;38.164;2024-03-08T12:56:31;6.02;59.75
75685;HTU21D;64298;46.050;38.164;2024-03-08T12:59:00;6.13;59.80
75685;HTU21D;64298;46.050;38.164;2024-03-08T13:01:26;6.21;59.48
75685;HTU21D;64298;46.050;38.164;2024-03-08T13:03:53;6.22;59.25
75685;HTU21D;64298;46.050;38.164;2024-03-08T13:06:20;6.27;58.81
75685;HTU21D;64298;46.050;38.164;2024-03-08T13:08:50;6.20;59.17
75685;HTU21D;64298;46.050;38.164;2024-03-08T13:11:24;6.25;58.97
75685;HTU21D;64298;46.050;38.164;2024-03-08T13:13:53;6.36;58.93
75685;HTU21D;64298;46.050;38.164;2024-03-08T13:16:19;6.41;58.25
75685;HTU21D;64298;46.050;38.164;2024-03-08T13:18:46;6.41;58.19
75685;HTU21D;64298;46.050;38.164;2024-03-08T13:21:15;6.37;58.22
75685;HTU21D;64298;46.050;38.164;2024-03-08T13:23:44;6.49;58.32
75685;HTU21D;64298;46.050;38.164;2024-03-08T13:26:15;6.54;57.77
75685;HTU21D;64298;46.050;38.164;2024-03-08T13:31:08;6.36;57.59
75685;HTU21D;64298;46.050;38.164;2024-03-08T13:33:37;6.35;58.15
75685;HTU21D;64298;46.050;38.164;2024-03-08T13:36:11;6.45;57.64
75685;HTU21D;64298;46.050;38.164;2024-03-08T13:38:48;6.37;58.07
75685;HTU21D;64298;46.050;38.164;2024-03-08T13:41:15;6.46;57.98
75685;HTU21D;64298;46.050;38.164;2024-03-08T13:43:43;6.81;57.26
75685;HTU21D;64298;46.050;38.164;2024-03-08T13:46:11;7.02;56.91
75685;HTU21D;64298;46.050;38.164;2024-03-08T13:48:37;7.47;56.33
75685;HTU21D;64298;46.050;38.164;2024-03-08T13:51:04;7.59;55.56
75685;HTU21D;64298;46.050;38.164;2024-03-08T13:53:31;7.55;56.19
75685;HTU21D;64298;46.050;38.164;2024-03-08T13:55:59;8.35;54.26
75685;HTU21D;64298;46.050;38.164;2024-03-08T13:58:26;8.53;53.46
75685;HTU21D;64298;46.050;38.164;2024-03-08T14:00:52;8.60;53.39
75685;HTU21D;64298;46.050;38.164;2024-03-08T14:03:18;8.81;52.84
75685;HTU21D;64298;46.050;38.164;2024-03-08T14:05:44;8.74;52.69
75685;HTU21D;64298;46.050;38.164;2024-03-08T14:08:11;9.02;52.11
75685;HTU21D;64298;46.050;38.164;2024-03-08T14:10:38;9.22;51.40
75685;HTU21D;64298;46.050;38.164;2024-03-08T14:13:04;8.82;51.57
75685;HTU21D;64298;46.050;38.164;2024-03-08T14:15:32;8.68;51.79
75685;HTU21D;64298;46.050;38.164;2024-03-08T14:17:59;8.87;51.50
75685;HTU21D;64298;46.050;38.164;2024-03-08T14:20:25;8.94;51.55
75685;HTU21D;64298;46.050;38.164;2024-03-08T14:22:52;8.48;52.22
75685;HTU21D;64298;46.050;38.164;2024-03-08T14:25:18;7.93;53.49
75685;HTU21D;64298;46.050;38.164;2024-03-08T14:27:45;7.56;54.76
75685;HTU21D;64298;46.050;38.164;2024-03-08T14:30:12;7.20;55.23
75685;HTU21D;64298;46.050;38.164;2024-03-08T14:32:39;6.94;55.87
75685;HTU21D;64298;46.050;38.164;2024-03-08T14:35:07;6.85;55.97
75685;HTU21D;64298;46.050;38.164;2024-03-08T14:37:33;7.04;55.61
75685;HTU21D;64298;46.050;38.164;2024-03-08T14:40:00;7.19;55.14
75685;HTU21D;64298;46.050;38.164;2024-03-08T14:42:26;6.88;55.69
75685;HTU21D;64298;46.050;38.164;2024-03-08T14:44:52;6.38;56.62
75685;HTU21D;64298;46.050;38.164;2024-03-08T14:47:19;5.78;57.78
75685;HTU21D;64298;46.050;38.164;2024-03-08T14:49:45;5.28;58.79
75685;HTU21D;64298;46.050;38.164;2024-03-08T14:52:11;4.88;59.80
75685;HTU21D;64298;46.050;38.164;2024-03-08T14:54:55;4.61;60.31
75685;HTU21D;64298;46.050;38.164;2024-03-08T14:57:23;4.46;60.73
75685;HTU21D;64298;46.050;38.164;2024-03-08T14:59:49;4.32;60.95
75685;HTU21D;64298;46.050;38.164;2024-03-08T15:02:15;4.13;61.20
75685;HTU21D;64298;46.050;38.164;2024-03-08T15:04:46;4.02;61.54
75685;HTU21D;64298;46.050;38.164;2024-03-08T15:07:40;3.98;61.73
75685;HTU21D;64298;46.050;38.164;2024-03-08T15:10:07;3.94;62.16
75685;HTU21D;64298;46.050;38.164;2024-03-08T15:12:39;3.91;62.29
75685;HTU21D;64298;46.050;38.164;2024-03-08T15:15:07;3.84;62.51
75685;HTU21D;64298;46.050;38.164;2024-03-08T15:17:36;3.73;63.03
75685;HTU21D;64298;46.050;38.164;2024-03-08T15:20:06;3.63;63.27
75685;HTU21D;64298;46.050;38.164;2024-03-08T15:22:43;3.56;63.27
75685;HTU21D;64298;46.050;38.164;2024-03-08T15:25:10;3.55;63.40